createdAt,value
2022-12-14T00:00:53.568Z,949.73
2022-12-14T00:01:53.448Z,949.68
2022-12-14T00:02:53.472Z,949.72
2022-12-14T00:03:53.429Z,949.70
2022-12-14T00:04:53.322Z,949.69
2022-12-14T00:05:53.256Z,949.69
2022-12-14T00:06:53.207Z,949.72
2022-12-14T00:07:53.155Z,949.65
2022-12-14T00:08:53.126Z,949.61
2022-12-14T00:09:53.054Z,949.58
2022-12-14T00:10:53.010Z,949.63
2022-12-14T00:11:52.981Z,949.59
2022-12-14T00:12:52.905Z,949.54
2022-12-14T00:13:52.885Z,949.53
2022-12-14T00:14:52.810Z,949.47
2022-12-14T00:15:52.787Z,949.44
2022-12-14T00:16:52.706Z,949.40
2022-12-14T00:17:52.660Z,949.38
2022-12-14T00:18:52.637Z,949.39
2022-12-14T00:19:52.565Z,949.35
2022-12-14T00:20:52.512Z,949.38
2022-12-14T00:21:52.462Z,949.37
2022-12-14T00:22:52.414Z,949.34
2022-12-14T00:23:52.366Z,949.37
2022-12-14T00:24:52.340Z,949.35
2022-12-14T00:25:52.265Z,949.34
2022-12-14T00:26:52.239Z,949.38
2022-12-14T00:27:52.169Z,949.38
2022-12-14T00:28:52.113Z,949.35
2022-12-14T00:29:52.069Z,949.41
2022-12-14T00:30:58.029Z,949.39
2022-12-14T00:31:52.001Z,949.41
2022-12-14T00:32:52.035Z,949.42
2022-12-14T00:33:51.882Z,949.42
2022-12-14T00:34:51.821Z,949.41
2022-12-14T00:35:51.774Z,949.41
2022-12-14T00:36:51.725Z,949.37
2022-12-14T00:37:51.679Z,949.40
2022-12-14T00:38:51.651Z,949.40
2022-12-14T00:39:51.576Z,949.39
2022-12-14T00:40:51.526Z,949.39
2022-12-14T00:41:51.479Z,949.40
2022-12-14T00:42:51.450Z,949.38
2022-12-14T00:43:51.375Z,949.38
2022-12-14T00:44:51.324Z,949.34
2022-12-14T00:45:51.292Z,949.31
2022-12-14T00:46:51.257Z,949.32
2022-12-14T00:47:51.204Z,949.33
2022-12-14T00:48:51.152Z,949.32
2022-12-14T00:49:51.077Z,949.31
2022-12-14T00:50:51.032Z,949.34
2022-12-14T00:51:50.981Z,949.35
2022-12-14T00:52:50.937Z,949.41
2022-12-14T00:53:50.912Z,949.40
2022-12-14T00:54:50.836Z,949.35
2022-12-14T00:55:50.780Z,949.33
2022-12-14T00:56:50.755Z,949.29
2022-12-14T00:57:50.697Z,949.32
2022-12-14T00:58:50.637Z,949.27
2022-12-14T00:59:50.584Z,949.37
2022-12-14T01:00:50.539Z,949.31
2022-12-14T01:01:50.589Z,949.30
2022-12-14T01:02:50.455Z,949.33
2022-12-14T01:03:50.475Z,949.33
2022-12-14T01:04:50.339Z,949.34
2022-12-14T01:05:50.288Z,949.35
2022-12-14T01:06:50.251Z,949.32
2022-12-14T01:07:50.190Z,949.34
2022-12-14T01:08:50.140Z,949.35
2022-12-14T01:09:50.083Z,949.38
2022-12-14T01:10:50.036Z,949.35
2022-12-14T01:11:49.989Z,949.36
2022-12-14T01:12:49.961Z,949.38
2022-12-14T01:13:49.956Z,949.37
2022-12-14T01:14:49.839Z,949.39
2022-12-14T01:15:49.840Z,949.39
2022-12-14T01:16:49.744Z,949.40
2022-12-14T01:17:49.690Z,949.38
2022-12-14T01:18:49.641Z,949.41
2022-12-14T01:19:49.593Z,949.36
2022-12-14T01:20:49.544Z,949.33
2022-12-14T01:21:49.519Z,949.32
2022-12-14T01:22:49.444Z,949.32
2022-12-14T01:23:49.398Z,949.35
2022-12-14T01:24:49.342Z,949.35
2022-12-14T01:25:49.314Z,949.37
2022-12-14T01:26:49.245Z,949.34
2022-12-14T01:27:49.195Z,949.39
2022-12-14T01:28:49.151Z,949.36
2022-12-14T01:29:49.096Z,949.32
2022-12-14T01:30:49.096Z,949.30
2022-12-14T01:31:49.055Z,949.27
2022-12-14T01:32:48.946Z,949.30
2022-12-14T01:33:48.897Z,949.35
2022-12-14T01:34:48.849Z,949.33
2022-12-14T01:35:48.800Z,949.31
2022-12-14T01:36:48.752Z,949.34
2022-12-14T01:37:49.075Z,949.34
2022-12-14T01:38:48.652Z,949.32
2022-12-14T01:39:48.601Z,949.33
2022-12-14T01:40:48.555Z,949.30
2022-12-14T01:41:48.508Z,949.34
2022-12-14T01:42:48.478Z,949.35
2022-12-14T01:43:48.717Z,949.36
2022-12-14T01:44:48.379Z,949.33
2022-12-14T01:45:48.305Z,949.29
2022-12-14T01:46:48.300Z,949.30
2022-12-14T01:47:48.206Z,949.27
2022-12-14T01:48:48.158Z,949.25
2022-12-14T01:49:48.135Z,949.24
2022-12-14T01:50:48.059Z,949.18
2022-12-14T01:51:48.012Z,949.19
2022-12-14T01:52:47.959Z,949.25
2022-12-14T01:53:47.911Z,949.25
2022-12-14T01:54:48.933Z,949.21
2022-12-14T01:55:48.999Z,949.15
2022-12-14T01:56:47.773Z,949.15
2022-12-14T01:57:47.713Z,949.16
2022-12-14T01:58:47.665Z,949.20
2022-12-14T01:59:47.619Z,949.27
2022-12-14T02:00:47.570Z,949.25
2022-12-14T02:01:48.338Z,949.23
2022-12-14T02:02:47.584Z,949.25
2022-12-14T02:03:47.521Z,949.25
2022-12-14T02:04:47.369Z,949.22
2022-12-14T02:05:47.319Z,949.21
2022-12-14T02:06:47.271Z,949.25
2022-12-14T02:07:48.907Z,949.24
2022-12-14T02:08:47.172Z,949.25
2022-12-14T02:09:47.122Z,949.20
2022-12-14T02:10:47.070Z,949.19
2022-12-14T02:11:47.020Z,949.21
2022-12-14T02:12:46.972Z,949.20
2022-12-14T02:13:48.803Z,949.24
2022-12-14T02:14:46.875Z,949.20
2022-12-14T02:15:46.906Z,949.20
2022-12-14T02:16:46.775Z,949.24
2022-12-14T02:17:46.723Z,949.24
2022-12-14T02:18:46.680Z,949.27
2022-12-14T02:19:46.627Z,949.27
2022-12-14T02:20:46.575Z,949.26
2022-12-14T02:21:46.553Z,949.25
2022-12-14T02:22:46.477Z,949.24
2022-12-14T02:23:46.427Z,949.25
2022-12-14T02:24:46.381Z,949.21
2022-12-14T02:25:49.458Z,949.23
2022-12-14T02:26:46.275Z,949.27
2022-12-14T02:27:46.261Z,949.25
2022-12-14T02:28:46.183Z,949.18
2022-12-14T02:29:46.131Z,949.14
2022-12-14T02:30:46.083Z,949.07
2022-12-14T02:31:46.107Z,949.05
2022-12-14T02:32:45.985Z,948.98
2022-12-14T02:33:45.962Z,948.92
2022-12-14T02:34:45.882Z,948.95
2022-12-14T02:35:45.837Z,948.93
2022-12-14T02:36:45.783Z,948.97
2022-12-14T02:37:45.736Z,948.97
2022-12-14T02:38:45.684Z,948.93
2022-12-14T02:39:45.651Z,948.89
2022-12-14T02:40:45.586Z,948.85
2022-12-14T02:41:45.538Z,948.82
2022-12-14T02:42:45.491Z,948.85
2022-12-14T02:43:45.435Z,948.83
2022-12-14T02:44:45.385Z,948.78
2022-12-14T02:45:45.370Z,948.75
2022-12-14T02:46:50.061Z,948.76
2022-12-14T02:47:45.240Z,948.76
2022-12-14T02:48:45.189Z,948.81
2022-12-14T02:49:49.226Z,948.84
2022-12-14T02:50:45.106Z,948.82
2022-12-14T02:51:45.068Z,948.78
2022-12-14T02:52:44.996Z,948.82
2022-12-14T02:53:44.942Z,948.79
2022-12-14T02:54:44.917Z,948.77
2022-12-14T02:55:44.843Z,948.77
2022-12-14T02:56:44.791Z,948.76
2022-12-14T02:57:44.743Z,948.74
2022-12-14T02:58:44.724Z,948.78
2022-12-14T02:59:44.646Z,948.71
2022-12-14T03:00:44.631Z,948.73
2022-12-14T03:01:45.460Z,948.81
2022-12-14T03:02:44.618Z,948.80
2022-12-14T03:03:44.562Z,948.82
2022-12-14T03:04:44.398Z,948.80
2022-12-14T03:05:44.348Z,948.74
2022-12-14T03:06:44.305Z,948.66
2022-12-14T03:07:44.250Z,948.66
2022-12-14T03:08:44.209Z,948.72
2022-12-14T03:09:44.185Z,948.71
2022-12-14T03:10:44.114Z,948.61
2022-12-14T03:11:44.054Z,948.67
2022-12-14T03:12:44.009Z,948.66
2022-12-14T03:13:43.948Z,948.70
2022-12-14T03:14:43.908Z,948.71
2022-12-14T03:15:43.884Z,948.66
2022-12-14T03:16:43.829Z,948.62
2022-12-14T03:17:43.772Z,948.62
2022-12-14T03:18:43.706Z,948.54
2022-12-14T03:19:43.658Z,948.55
2022-12-14T03:20:43.692Z,948.55
2022-12-14T03:21:43.559Z,948.57
2022-12-14T03:22:43.508Z,948.63
2022-12-14T03:23:43.488Z,948.68
2022-12-14T03:24:43.412Z,948.64
2022-12-14T03:25:43.361Z,948.54
2022-12-14T03:26:47.359Z,948.51
2022-12-14T03:27:43.286Z,948.46
2022-12-14T03:28:43.213Z,948.55
2022-12-14T03:29:43.186Z,948.61
2022-12-14T03:31:00.425Z,948.57
2022-12-14T03:31:43.097Z,948.61
2022-12-14T03:32:43.014Z,948.53
2022-12-14T03:33:42.968Z,948.60
2022-12-14T03:34:42.922Z,948.58
2022-12-14T03:35:42.897Z,948.51
2022-12-14T03:36:42.822Z,948.51
2022-12-14T03:37:42.768Z,948.46
2022-12-14T03:38:42.762Z,948.44
2022-12-14T03:39:42.799Z,948.40
2022-12-14T03:40:42.625Z,948.42
2022-12-14T03:41:42.576Z,948.41
2022-12-14T03:42:42.522Z,948.45
2022-12-14T03:43:42.475Z,948.38
2022-12-14T03:44:49.473Z,948.43
2022-12-14T03:45:42.444Z,948.41
2022-12-14T03:46:42.364Z,948.42
2022-12-14T03:47:42.279Z,948.37
2022-12-14T03:48:42.228Z,948.39
2022-12-14T03:49:42.181Z,948.39
2022-12-14T03:50:42.127Z,948.37
2022-12-14T03:51:42.104Z,948.34
2022-12-14T03:52:42.056Z,948.34
2022-12-14T03:53:41.977Z,948.35
2022-12-14T03:54:41.931Z,948.37
2022-12-14T03:55:41.905Z,948.37
2022-12-14T03:56:41.836Z,948.32
2022-12-14T03:57:41.789Z,948.31
2022-12-14T03:58:41.737Z,948.29
2022-12-14T03:59:41.712Z,948.30
2022-12-14T04:00:41.688Z,948.27
2022-12-14T04:01:41.693Z,948.24
2022-12-14T04:02:41.625Z,948.29
2022-12-14T04:03:41.489Z,948.22
2022-12-14T04:04:41.456Z,948.16
2022-12-14T04:05:47.002Z,948.23
2022-12-14T04:06:41.365Z,948.25
2022-12-14T04:07:41.294Z,948.22
2022-12-14T04:08:41.242Z,948.16
2022-12-14T04:09:41.191Z,948.15
2022-12-14T04:10:41.147Z,948.10
2022-12-14T04:11:41.093Z,948.07
2022-12-14T04:12:42.586Z,948.12
2022-12-14T04:13:40.994Z,948.04
2022-12-14T04:14:40.948Z,948.10
2022-12-14T04:15:40.897Z,948.09
2022-12-14T04:16:40.892Z,948.05
2022-12-14T04:17:40.825Z,948.11
2022-12-14T04:18:40.749Z,948.24
2022-12-14T04:19:40.700Z,948.24
2022-12-14T04:20:40.647Z,948.15
2022-12-14T04:21:40.605Z,948.10
2022-12-14T04:22:40.557Z,948.12
2022-12-14T04:23:40.528Z,948.06
2022-12-14T04:24:40.459Z,948.05
2022-12-14T04:25:40.404Z,948.03
2022-12-14T04:26:40.356Z,947.97
2022-12-14T04:27:40.310Z,947.95
2022-12-14T04:28:40.255Z,947.91
2022-12-14T04:29:45.694Z,947.87
2022-12-14T04:30:40.156Z,947.82
2022-12-14T04:31:40.172Z,947.82
2022-12-14T04:32:40.104Z,947.87
2022-12-14T04:33:40.015Z,947.86
2022-12-14T04:34:39.963Z,947.86
2022-12-14T04:35:39.918Z,947.89
2022-12-14T04:36:39.874Z,947.85
2022-12-14T04:37:39.814Z,947.89
2022-12-14T04:38:39.762Z,947.87
2022-12-14T04:39:39.720Z,947.83
2022-12-14T04:40:39.667Z,947.82
2022-12-14T04:41:39.645Z,947.81
2022-12-14T04:42:39.591Z,947.82
2022-12-14T04:43:39.515Z,947.87
2022-12-14T04:44:39.468Z,947.84
2022-12-14T04:45:39.471Z,947.84
2022-12-14T04:46:40.944Z,947.80
2022-12-14T04:47:39.319Z,947.74
2022-12-14T04:48:39.311Z,947.69
2022-12-14T04:49:39.222Z,947.68
2022-12-14T04:50:39.196Z,947.67
2022-12-14T04:51:39.139Z,947.66
2022-12-14T04:52:39.077Z,947.65
2022-12-14T04:53:39.030Z,947.74
2022-12-14T04:54:38.980Z,947.74
2022-12-14T04:55:38.952Z,947.69
2022-12-14T04:56:38.877Z,947.65
2022-12-14T04:57:38.830Z,947.66
2022-12-14T04:58:38.834Z,947.67
2022-12-14T04:59:38.734Z,947.63
2022-12-14T05:00:38.688Z,947.61
2022-12-14T05:01:38.754Z,947.63
2022-12-14T05:02:38.693Z,947.58
2022-12-14T05:03:38.532Z,947.55
2022-12-14T05:04:38.513Z,947.55
2022-12-14T05:05:38.438Z,947.53
2022-12-14T05:06:38.400Z,947.55
2022-12-14T05:07:38.342Z,947.51
2022-12-14T05:08:38.287Z,947.56
2022-12-14T05:09:38.241Z,947.59
2022-12-14T05:10:38.217Z,947.58
2022-12-14T05:11:54.580Z,947.58
2022-12-14T05:12:38.116Z,947.59
2022-12-14T05:13:38.038Z,947.53
2022-12-14T05:14:37.992Z,947.58
2022-12-14T05:15:37.944Z,947.59
2022-12-14T05:16:37.910Z,947.59
2022-12-14T05:17:37.864Z,947.60
2022-12-14T05:18:37.797Z,947.61
2022-12-14T05:19:37.760Z,947.61
2022-12-14T05:20:37.735Z,947.62
2022-12-14T05:21:37.649Z,947.62
2022-12-14T05:22:37.600Z,947.60
2022-12-14T05:23:37.554Z,947.61
2022-12-14T05:24:37.523Z,947.53
2022-12-14T05:25:37.453Z,947.56
2022-12-14T05:26:37.401Z,947.59
2022-12-14T05:27:37.382Z,947.61
2022-12-14T05:28:37.306Z,947.58
2022-12-14T05:29:37.254Z,947.55
2022-12-14T05:30:37.219Z,947.50
2022-12-14T05:31:37.156Z,947.47
2022-12-14T05:32:37.113Z,947.40
2022-12-14T05:33:37.077Z,947.44
2022-12-14T05:34:37.009Z,947.42
2022-12-14T05:35:36.963Z,947.38
2022-12-14T05:36:36.915Z,947.35
2022-12-14T05:37:36.862Z,947.30
2022-12-14T05:38:36.814Z,947.29
2022-12-14T05:39:36.786Z,947.28
2022-12-14T05:40:36.714Z,947.32
2022-12-14T05:41:36.664Z,947.30
2022-12-14T05:42:42.633Z,947.28
2022-12-14T05:43:36.573Z,947.31
2022-12-14T05:44:36.517Z,947.28
2022-12-14T05:45:36.619Z,947.27
2022-12-14T05:46:36.419Z,947.28
2022-12-14T05:47:36.374Z,947.23
2022-12-14T05:48:36.325Z,947.18
2022-12-14T05:49:36.271Z,947.13
2022-12-14T05:50:36.224Z,947.12
2022-12-14T05:51:36.211Z,947.06
2022-12-14T05:52:36.129Z,947.04
2022-12-14T05:53:36.076Z,947.04
2022-12-14T05:54:36.027Z,947.06
2022-12-14T05:55:35.979Z,947.01
2022-12-14T05:56:35.933Z,946.96
2022-12-14T05:57:35.925Z,946.98
2022-12-14T05:58:35.832Z,947.00
2022-12-14T05:59:35.790Z,947.05
2022-12-14T06:03:48.396Z,946.98
2022-12-14T06:04:47.793Z,946.98
2022-12-14T06:05:47.536Z,946.94
2022-12-14T06:06:47.494Z,946.93
2022-12-14T06:07:47.707Z,946.90
2022-12-14T06:08:47.385Z,946.92
2022-12-14T06:09:49.465Z,946.94
2022-12-14T06:10:47.410Z,946.90
2022-12-14T06:11:47.484Z,946.92
2022-12-14T06:12:47.324Z,946.91
2022-12-14T06:13:47.242Z,946.93
2022-12-14T06:14:47.123Z,946.93
2022-12-14T06:15:47.414Z,946.97
2022-12-14T06:16:47.139Z,946.91
2022-12-14T06:17:46.946Z,946.95
2022-12-14T06:18:46.898Z,946.98
2022-12-14T06:19:50.316Z,947.01
2022-12-14T06:20:46.817Z,947.05
2022-12-14T06:21:46.891Z,947.06
2022-12-14T06:22:47.879Z,947.00
2022-12-14T06:23:46.634Z,946.99
2022-12-14T06:24:46.791Z,946.97
2022-12-14T06:25:46.632Z,947.01
2022-12-14T06:26:46.725Z,946.99
2022-12-14T06:27:46.569Z,946.93
2022-12-14T06:28:46.532Z,946.89
2022-12-14T06:29:46.543Z,946.91
2022-12-14T06:30:46.357Z,946.87
2022-12-14T06:31:49.403Z,946.89
2022-12-14T06:32:46.230Z,946.89
2022-12-14T06:33:46.497Z,946.88
2022-12-14T06:34:46.194Z,946.87
2022-12-14T06:35:46.047Z,946.84
2022-12-14T06:36:46.335Z,946.82
2022-12-14T06:37:48.864Z,946.78
2022-12-14T06:38:45.901Z,946.80
2022-12-14T06:39:49.722Z,946.74
2022-12-14T06:40:45.828Z,946.77
2022-12-14T06:41:45.760Z,946.71
2022-12-14T06:42:46.027Z,946.65
2022-12-14T06:43:45.751Z,946.68
2022-12-14T06:44:50.985Z,946.65
2022-12-14T06:45:45.696Z,946.62
2022-12-14T06:46:47.975Z,946.70
2022-12-14T06:47:45.460Z,946.67
2022-12-14T06:48:46.485Z,946.70
2022-12-14T06:49:45.543Z,946.65
2022-12-14T06:50:46.500Z,946.62
2022-12-14T06:51:45.285Z,946.56
2022-12-14T06:52:45.486Z,946.51
2022-12-14T06:53:45.173Z,946.52
2022-12-14T06:54:55.166Z,946.51
2022-12-14T06:55:45.059Z,946.50
2022-12-14T06:56:45.028Z,946.46
2022-12-14T06:57:44.967Z,946.51
2022-12-14T06:58:44.919Z,946.60
2022-12-14T06:59:44.869Z,946.59
2022-12-14T07:00:44.819Z,946.66
2022-12-14T07:01:44.893Z,946.72
2022-12-14T07:02:44.863Z,946.71
2022-12-14T07:03:44.711Z,946.70
2022-12-14T07:04:44.622Z,946.67
2022-12-14T07:05:48.844Z,946.65
2022-12-14T07:06:44.524Z,946.72
2022-12-14T07:07:44.478Z,946.67
2022-12-14T07:08:44.462Z,946.70
2022-12-14T07:09:44.380Z,946.68
2022-12-14T07:10:44.336Z,946.60
2022-12-14T07:11:44.306Z,946.62
2022-12-14T07:12:44.236Z,946.66
2022-12-14T07:13:44.187Z,946.63
2022-12-14T07:14:44.142Z,946.64
2022-12-14T07:15:44.227Z,946.65
2022-12-14T07:16:47.773Z,946.66
2022-12-14T07:17:43.985Z,946.65
2022-12-14T07:18:43.941Z,946.65
2022-12-14T07:19:43.895Z,946.62
2022-12-14T07:20:43.840Z,946.62
2022-12-14T07:21:43.813Z,946.68
2022-12-14T07:22:43.743Z,946.63
2022-12-14T07:23:43.704Z,946.61
2022-12-14T07:24:43.645Z,946.63
2022-12-14T07:25:43.596Z,946.64
2022-12-14T07:26:43.569Z,946.65
2022-12-14T07:27:43.497Z,946.64
2022-12-14T07:28:43.448Z,946.61
2022-12-14T07:29:43.400Z,946.62
2022-12-14T07:30:43.381Z,946.58
2022-12-14T07:31:43.301Z,946.58
2022-12-14T07:32:43.281Z,946.58
2022-12-14T07:33:43.231Z,946.55
2022-12-14T07:34:43.160Z,946.59
2022-12-14T07:35:43.112Z,946.65
2022-12-14T07:36:43.059Z,946.65
2022-12-14T07:37:43.011Z,946.65
2022-12-14T07:38:42.980Z,946.67
2022-12-14T07:39:42.910Z,946.63
2022-12-14T07:40:42.876Z,946.64
2022-12-14T07:41:42.814Z,946.65
2022-12-14T07:42:42.785Z,946.58
2022-12-14T07:43:42.715Z,946.67
2022-12-14T07:44:42.666Z,946.67
2022-12-14T07:45:42.619Z,946.67
2022-12-14T07:46:42.657Z,946.68
2022-12-14T07:47:42.516Z,946.71
2022-12-14T07:48:42.509Z,946.77
2022-12-14T07:49:42.420Z,946.73
2022-12-14T07:50:42.371Z,946.68
2022-12-14T07:51:42.317Z,946.72
2022-12-14T07:52:42.277Z,946.73
2022-12-14T07:53:42.226Z,946.72
2022-12-14T07:54:42.195Z,946.68
2022-12-14T07:55:42.125Z,946.65
2022-12-14T07:56:42.079Z,946.63
2022-12-14T07:57:42.028Z,946.65
2022-12-14T07:58:41.977Z,946.64
2022-12-14T07:59:41.928Z,946.64
2022-12-14T08:00:41.995Z,946.63
2022-12-14T08:01:41.928Z,946.68
2022-12-14T08:02:41.822Z,946.69
2022-12-14T08:03:41.737Z,946.72
2022-12-14T08:04:41.709Z,946.68
2022-12-14T08:05:41.636Z,946.63
2022-12-14T08:06:41.602Z,946.66
2022-12-14T08:07:41.539Z,946.63
2022-12-14T08:08:41.491Z,946.69
2022-12-14T08:09:41.442Z,946.67
2022-12-14T08:10:41.389Z,946.68
2022-12-14T08:11:41.341Z,946.69
2022-12-14T08:12:41.339Z,946.64
2022-12-14T08:13:41.248Z,946.61
2022-12-14T08:14:41.196Z,946.62
2022-12-14T08:15:41.200Z,946.62
2022-12-14T08:16:41.097Z,946.59
2022-12-14T08:17:41.056Z,946.57
2022-12-14T08:18:41.028Z,946.64
2022-12-14T08:19:40.955Z,946.61
2022-12-14T08:20:40.905Z,946.63
2022-12-14T08:21:40.858Z,946.54
2022-12-14T08:22:40.828Z,946.52
2022-12-14T08:23:40.754Z,946.52
2022-12-14T08:24:40.729Z,946.46
2022-12-14T08:25:40.654Z,946.39
2022-12-14T08:26:40.610Z,946.38
2022-12-14T08:27:40.560Z,946.36
2022-12-14T08:28:40.511Z,946.44
2022-12-14T08:29:40.475Z,946.44
2022-12-14T08:30:40.417Z,946.39
2022-12-14T08:31:40.414Z,946.46
2022-12-14T08:32:40.338Z,946.47
2022-12-14T08:33:40.273Z,946.45
2022-12-14T08:34:40.216Z,946.51
2022-12-14T08:35:40.169Z,946.50
2022-12-14T08:36:40.165Z,946.44
2022-12-14T08:37:45.735Z,946.45
2022-12-14T08:38:40.020Z,946.46
2022-12-14T08:39:39.976Z,946.51
2022-12-14T08:40:39.937Z,946.55
2022-12-14T08:41:39.878Z,946.53
2022-12-14T08:42:39.851Z,946.57
2022-12-14T08:43:39.780Z,946.54
2022-12-14T08:44:39.732Z,946.54
2022-12-14T08:45:39.684Z,946.47
2022-12-14T08:46:39.695Z,946.49
2022-12-14T08:47:39.588Z,946.57
2022-12-14T08:48:39.580Z,946.54
2022-12-14T08:49:39.493Z,946.53
2022-12-14T08:50:39.441Z,946.55
2022-12-14T08:51:39.393Z,946.50
2022-12-14T08:52:39.343Z,946.50
2022-12-14T08:53:39.297Z,946.44
2022-12-14T08:54:39.273Z,946.45
2022-12-14T08:55:39.201Z,946.47
2022-12-14T08:56:39.149Z,946.45
2022-12-14T08:57:39.103Z,946.44
2022-12-14T08:58:39.055Z,946.52
2022-12-14T09:00:00.806Z,946.53
2022-12-14T09:00:39.056Z,946.52
2022-12-14T09:01:39.071Z,946.52
2022-12-14T09:02:39.030Z,946.56
2022-12-14T09:03:38.809Z,946.47
2022-12-14T09:04:38.759Z,946.52
2022-12-14T09:05:38.738Z,946.49
2022-12-14T09:06:38.670Z,946.51
2022-12-14T09:07:38.616Z,946.46
2022-12-14T09:08:38.715Z,946.51
2022-12-14T09:09:38.517Z,946.51
2022-12-14T09:10:38.470Z,946.54
2022-12-14T09:11:38.468Z,946.44
2022-12-14T09:12:38.372Z,946.47
2022-12-14T09:13:38.319Z,946.48
2022-12-14T09:14:38.269Z,946.53
2022-12-14T09:15:38.220Z,946.62
2022-12-14T09:16:38.239Z,946.60
2022-12-14T09:17:38.170Z,946.64
2022-12-14T09:18:38.080Z,946.71
2022-12-14T09:19:38.024Z,946.69
2022-12-14T09:20:37.980Z,946.59
2022-12-14T09:21:37.984Z,946.67
2022-12-14T09:22:37.876Z,946.66
2022-12-14T09:23:37.863Z,946.64
2022-12-14T09:24:37.793Z,946.67
2022-12-14T09:25:37.755Z,946.57
2022-12-14T09:26:37.688Z,946.60
2022-12-14T09:27:37.634Z,946.58
2022-12-14T09:28:37.590Z,946.61
2022-12-14T09:29:37.540Z,946.55
2022-12-14T09:30:37.515Z,946.55
2022-12-14T09:31:37.494Z,946.48
2022-12-14T09:32:37.388Z,946.40
2022-12-14T09:33:37.350Z,946.48
2022-12-14T09:34:37.291Z,946.43
2022-12-14T09:35:37.246Z,946.46
2022-12-14T09:36:37.209Z,946.60
2022-12-14T09:37:37.146Z,946.58
2022-12-14T09:38:37.097Z,946.61
2022-12-14T09:39:37.049Z,946.58
2022-12-14T09:40:37.002Z,946.51
2022-12-14T09:41:36.973Z,946.53
2022-12-14T09:42:36.904Z,946.57
2022-12-14T09:43:37.516Z,946.51
2022-12-14T09:44:36.823Z,946.59
2022-12-14T09:45:36.786Z,946.53
2022-12-14T09:46:36.708Z,946.48
2022-12-14T09:47:36.685Z,946.49
2022-12-14T09:48:36.617Z,946.49
2022-12-14T09:49:36.589Z,946.51
2022-12-14T09:50:36.519Z,946.52
2022-12-14T09:51:36.517Z,946.50
2022-12-14T09:52:36.424Z,946.51
2022-12-14T09:53:36.384Z,946.54
2022-12-14T09:54:36.327Z,946.60
2022-12-14T09:55:36.316Z,946.60
2022-12-14T09:56:36.231Z,946.50
2022-12-14T09:57:36.192Z,946.41
2022-12-14T09:58:36.140Z,946.40
2022-12-14T09:59:36.116Z,946.46
2022-12-14T10:00:36.049Z,946.49
2022-12-14T10:01:36.088Z,946.51
2022-12-14T10:02:36.129Z,946.46
2022-12-14T10:03:36.883Z,946.53
2022-12-14T10:04:35.966Z,946.62
2022-12-14T10:05:35.859Z,946.58
2022-12-14T10:06:35.758Z,946.60
2022-12-14T10:07:35.712Z,946.52
2022-12-14T10:08:35.666Z,946.50
2022-12-14T10:09:35.624Z,946.49
2022-12-14T10:10:35.591Z,946.48
2022-12-14T10:11:35.575Z,946.43
2022-12-14T10:12:35.507Z,946.38
2022-12-14T10:13:35.442Z,946.53
2022-12-14T10:14:39.593Z,946.45
2022-12-14T10:15:35.373Z,946.45
2022-12-14T10:16:35.436Z,946.39
2022-12-14T10:17:35.257Z,946.43
2022-12-14T10:18:58.149Z,946.43
2022-12-14T10:19:35.191Z,946.43
2022-12-14T10:20:35.115Z,946.36
2022-12-14T10:21:35.079Z,946.36
2022-12-14T10:22:35.040Z,946.33
2022-12-14T10:23:34.987Z,946.36
2022-12-14T10:24:34.939Z,946.31
2022-12-14T10:25:34.917Z,946.34
2022-12-14T10:26:34.847Z,946.39
2022-12-14T10:28:01.021Z,946.39
2022-12-14T10:28:34.754Z,946.40
2022-12-14T10:29:34.713Z,946.46
2022-12-14T10:30:34.664Z,946.46
2022-12-14T10:31:34.687Z,946.34
2022-12-14T10:32:34.595Z,946.58
2022-12-14T10:33:34.528Z,946.36
2022-12-14T10:34:34.477Z,946.30
2022-12-14T10:35:34.439Z,946.31
2022-12-14T10:36:34.392Z,946.26
2022-12-14T10:37:34.343Z,946.36
2022-12-14T10:38:34.408Z,946.28
2022-12-14T10:39:34.260Z,946.34
2022-12-14T10:40:34.760Z,946.35
2022-12-14T10:41:34.187Z,946.34
2022-12-14T10:42:34.151Z,946.29
2022-12-14T10:43:34.069Z,946.23
2022-12-14T10:44:34.044Z,946.34
2022-12-14T10:45:42.184Z,946.37
2022-12-14T10:46:33.995Z,946.21
2022-12-14T10:47:33.886Z,946.29
2022-12-14T10:48:33.962Z,946.27
2022-12-14T10:49:33.794Z,946.28
2022-12-14T10:50:33.759Z,946.17
2022-12-14T10:51:33.703Z,946.19
2022-12-14T10:52:33.655Z,946.23
2022-12-14T10:53:38.749Z,946.24
2022-12-14T10:54:33.553Z,946.21
2022-12-14T10:55:33.523Z,946.25
2022-12-14T10:56:33.564Z,946.26
2022-12-14T10:57:33.416Z,946.25
2022-12-14T10:58:33.614Z,946.28
2022-12-14T10:59:39.629Z,946.17
2022-12-14T11:00:33.277Z,946.23
2022-12-14T11:01:33.369Z,946.29
2022-12-14T11:02:33.278Z,946.28
2022-12-14T11:03:33.209Z,946.22
2022-12-14T11:04:33.108Z,946.21
2022-12-14T11:05:36.719Z,946.13
2022-12-14T11:06:32.994Z,946.11
2022-12-14T11:07:32.977Z,946.04
2022-12-14T11:08:32.994Z,946.02
2022-12-14T11:09:32.856Z,946.02
2022-12-14T11:10:32.811Z,946.24
2022-12-14T11:11:32.799Z,946.08
2022-12-14T11:12:32.743Z,946.04
2022-12-14T11:13:32.672Z,946.25
2022-12-14T11:14:32.665Z,946.04
2022-12-14T11:15:32.575Z,946.00
2022-12-14T11:16:36.406Z,945.93
2022-12-14T11:17:32.574Z,945.92
2022-12-14T11:18:32.857Z,945.83
2022-12-14T11:19:32.384Z,945.86
2022-12-14T11:20:32.340Z,945.77
2022-12-14T11:21:32.295Z,945.79
2022-12-14T11:22:32.245Z,945.79
2022-12-14T11:23:32.215Z,945.76
2022-12-14T11:24:32.151Z,945.75
2022-12-14T11:25:32.146Z,945.77
2022-12-14T11:26:32.058Z,945.76
2022-12-14T11:27:32.015Z,945.79
2022-12-14T11:28:36.994Z,945.88
2022-12-14T11:29:31.930Z,945.79
2022-12-14T11:30:31.893Z,945.83
2022-12-14T11:31:31.843Z,945.88
2022-12-14T11:32:31.772Z,945.87
2022-12-14T11:33:31.728Z,945.90
2022-12-14T11:34:31.684Z,945.88
2022-12-14T11:35:31.637Z,945.88
2022-12-14T11:36:31.587Z,945.89
2022-12-14T11:37:31.587Z,945.92
2022-12-14T11:38:31.742Z,945.95
2022-12-14T11:39:31.445Z,945.87
2022-12-14T11:40:31.396Z,945.84
2022-12-14T11:41:31.349Z,945.91
2022-12-14T11:42:31.303Z,945.93
2022-12-14T11:43:31.282Z,945.96
2022-12-14T11:44:31.226Z,945.89
2022-12-14T11:45:31.163Z,945.88
2022-12-14T11:46:31.168Z,945.78
2022-12-14T11:47:31.070Z,945.95
2022-12-14T11:48:31.218Z,945.83
2022-12-14T11:49:30.997Z,945.87
2022-12-14T11:50:30.949Z,945.95
2022-12-14T11:51:30.884Z,945.85
2022-12-14T11:52:30.832Z,945.86
2022-12-14T11:53:30.789Z,945.83
2022-12-14T11:54:30.874Z,945.75
2022-12-14T11:55:30.689Z,945.74
2022-12-14T11:56:30.642Z,945.81
2022-12-14T11:57:30.596Z,945.85
2022-12-14T11:58:30.938Z,945.82
2022-12-14T11:59:30.499Z,945.89
2022-12-14T12:00:30.487Z,945.84
2022-12-14T12:01:30.461Z,945.87
2022-12-14T12:02:30.458Z,945.87
2022-12-14T12:03:30.387Z,945.87
2022-12-14T12:04:30.265Z,945.91
2022-12-14T12:05:30.219Z,945.85
2022-12-14T12:06:30.200Z,945.87
2022-12-14T12:07:30.127Z,945.91
2022-12-14T12:08:30.431Z,945.84
2022-12-14T12:09:30.029Z,945.96
2022-12-14T12:10:29.985Z,945.82
2022-12-14T12:11:30.123Z,945.85
2022-12-14T12:12:29.891Z,945.89
2022-12-14T12:13:29.843Z,945.91
2022-12-14T12:14:29.793Z,945.81
2022-12-14T12:15:29.813Z,945.98
2022-12-14T12:16:29.752Z,945.98
2022-12-14T12:17:29.674Z,945.85
2022-12-14T12:18:29.851Z,945.85
2022-12-14T12:19:29.561Z,945.93
2022-12-14T12:20:29.512Z,945.83
2022-12-14T12:21:29.464Z,945.90
2022-12-14T12:22:29.413Z,945.86
2022-12-14T12:23:29.697Z,945.78
2022-12-14T12:24:29.323Z,945.81
2022-12-14T12:25:35.088Z,945.84
2022-12-14T12:26:29.222Z,945.88
2022-12-14T12:27:29.204Z,945.75
2022-12-14T12:28:29.316Z,945.72
2022-12-14T12:29:29.238Z,945.65
2022-12-14T12:30:29.033Z,945.77
2022-12-14T12:31:29.045Z,945.68